createdAt,value
2023-03-19T00:00:25.899Z,1.48
2023-03-19T00:02:29.521Z,1.80
2023-03-19T00:04:33.391Z,2.10
2023-03-19T00:06:37.048Z,2.15
2023-03-19T00:08:40.629Z,2.05
2023-03-19T00:10:43.982Z,2.10
2023-03-19T00:12:48.910Z,2.22
2023-03-19T00:14:52.241Z,2.80
2023-03-19T00:16:55.576Z,2.22
2023-03-19T00:18:58.915Z,2.40
2023-03-19T00:21:02.588Z,2.05
2023-03-19T00:23:06.496Z,2.05
2023-03-19T00:25:11.112Z,2.78
2023-03-19T00:27:14.545Z,2.35
2023-03-19T00:29:19.385Z,1.80
2023-03-19T00:31:24.478Z,2.10
2023-03-19T00:33:27.795Z,2.00
2023-03-19T00:35:31.770Z,1.63
2023-03-19T00:37:35.724Z,1.50
2023-03-19T00:39:39.187Z,2.22
2023-03-19T00:41:42.626Z,1.65
2023-03-19T00:43:46.421Z,1.73
2023-03-19T00:45:51.188Z,2.38
2023-03-19T00:47:54.498Z,1.85
2023-03-19T00:49:57.917Z,2.60
2023-03-19T00:52:01.526Z,3.05
2023-03-19T00:54:05.363Z,2.08
2023-03-19T00:56:09.511Z,1.70
2023-03-19T00:58:12.739Z,1.85
2023-03-19T01:02:21.151Z,1.65
2023-03-19T01:04:24.639Z,2.47
2023-03-19T01:06:27.994Z,1.58
2023-03-19T01:08:31.309Z,1.98
2023-03-19T01:10:35.887Z,1.83
2023-03-19T01:12:41.635Z,1.75
2023-03-19T01:14:44.881Z,2.03
2023-03-19T01:16:48.352Z,1.70
2023-03-19T01:18:53.512Z,1.73
2023-03-19T01:20:56.982Z,1.75
2023-03-19T01:23:01.644Z,2.50
2023-03-19T01:25:05.898Z,2.33
2023-03-19T01:27:10.038Z,1.63
2023-03-19T01:29:13.682Z,2.30
2023-03-19T01:31:17.349Z,2.10
2023-03-19T01:33:29.685Z,1.40
2023-03-19T01:35:39.816Z,1.63
2023-03-19T01:37:43.975Z,1.75
2023-03-19T01:39:48.116Z,2.05
2023-03-19T01:41:51.987Z,1.73
2023-03-19T01:46:51.431Z,1.33
2023-03-19T01:49:31.901Z,1.92
2023-03-19T01:51:50.785Z,1.70
2023-03-19T01:54:18.114Z,1.67
2023-03-19T01:56:33.387Z,1.20
2023-03-19T01:59:07.932Z,1.75
2023-03-19T02:01:54.935Z,1.75
2023-03-19T02:04:00.119Z,1.70
2023-03-19T02:06:07.809Z,1.70
2023-03-19T02:08:15.865Z,1.92
2023-03-19T02:10:20.962Z,2.25
2023-03-19T02:12:24.251Z,2.10
2023-03-19T02:14:27.737Z,1.33
2023-03-19T02:16:31.959Z,2.03
2023-03-19T02:18:36.320Z,1.92
2023-03-19T02:20:50.016Z,2.08
2023-03-19T02:23:00.287Z,2.40
2023-03-19T02:25:12.541Z,1.23
2023-03-19T02:27:19.484Z,1.85
2023-03-19T02:29:25.752Z,1.85
2023-03-19T02:31:29.601Z,1.63
2023-03-19T02:33:33.399Z,1.92
2023-03-19T02:35:38.507Z,1.83
2023-03-19T02:37:41.991Z,2.08
2023-03-19T02:39:53.073Z,1.33
2023-03-19T02:41:58.283Z,2.17
2023-03-19T02:44:06.693Z,1.30
2023-03-19T02:46:12.952Z,1.85
2023-03-19T02:48:17.769Z,1.92
2023-03-19T02:50:21.014Z,1.90
2023-03-19T02:52:25.261Z,1.77
2023-03-19T02:54:28.802Z,2.00
2023-03-19T02:56:32.730Z,1.10
2023-03-19T02:58:36.170Z,1.55
2023-03-19T03:00:42.569Z,1.45
2023-03-19T03:02:46.198Z,1.27
2023-03-19T03:04:49.599Z,1.83
2023-03-19T03:06:53.081Z,1.40
2023-03-19T03:08:56.633Z,1.33
2023-03-19T03:11:01.992Z,1.48
2023-03-19T03:13:05.671Z,1.70
2023-03-19T03:15:10.046Z,1.88
2023-03-19T03:17:15.533Z,1.67
2023-03-19T03:19:19.543Z,1.60
2023-03-19T03:21:24.442Z,1.52
2023-03-19T03:23:27.794Z,1.52
2023-03-19T03:25:31.183Z,1.70
2023-03-19T03:27:35.020Z,1.35
2023-03-19T03:29:38.331Z,1.05
2023-03-19T03:31:41.705Z,1.70
2023-03-19T03:33:47.128Z,1.88
2023-03-19T03:35:51.177Z,1.27
2023-03-19T03:37:54.486Z,1.50
2023-03-19T03:39:58.210Z,2.08
2023-03-19T03:42:01.509Z,1.48
2023-03-19T03:44:07.122Z,1.63
2023-03-19T03:46:12.556Z,1.45
2023-03-19T03:48:16.344Z,1.20
2023-03-19T03:50:21.112Z,1.60
2023-03-19T03:52:31.353Z,1.80
2023-03-19T03:54:35.475Z,1.63
2023-03-19T03:56:39.009Z,1.58
2023-03-19T03:58:42.319Z,1.90
2023-03-19T04:00:46.259Z,2.10
2023-03-19T04:02:49.668Z,1.77
2023-03-19T04:04:53.533Z,1.40
2023-03-19T04:06:58.137Z,1.20
2023-03-19T04:09:09.450Z,1.20
2023-03-19T04:11:13.278Z,1.48
2023-03-19T04:13:16.577Z,1.40
2023-03-19T04:15:20.457Z,1.52
2023-03-19T04:17:24.927Z,1.23
2023-03-19T04:19:28.494Z,1.27
2023-03-19T04:21:31.969Z,2.65
2023-03-19T04:23:36.748Z,1.42
2023-03-19T04:25:41.615Z,2.00
2023-03-19T04:27:45.322Z,1.10
2023-03-19T04:29:48.706Z,0.95
2023-03-19T04:31:52.924Z,1.48
2023-03-19T04:33:56.217Z,1.35
2023-03-19T04:36:00.589Z,1.58
2023-03-19T04:38:04.214Z,1.20
2023-03-19T04:40:11.123Z,1.35
2023-03-19T04:42:15.519Z,0.95
2023-03-19T04:44:28.505Z,2.22
2023-03-19T04:46:32.248Z,1.60
2023-03-19T04:48:36.577Z,1.35
2023-03-19T04:50:41.067Z,1.42
2023-03-19T04:52:44.296Z,1.30
2023-03-19T04:54:48.896Z,1.27
2023-03-19T04:56:54.255Z,1.00
2023-03-19T04:58:59.830Z,1.02
2023-03-19T05:01:03.926Z,1.23
2023-03-19T05:03:30.075Z,1.23
2023-03-19T05:05:33.476Z,1.10
2023-03-19T05:07:42.457Z,1.42
2023-03-19T05:09:47.935Z,0.80
2023-03-19T05:11:53.822Z,1.50
2023-03-19T05:13:58.926Z,1.60
2023-03-19T05:16:09.513Z,1.45
2023-03-19T05:18:13.647Z,0.93
2023-03-19T05:20:20.673Z,1.80
2023-03-19T05:22:39.870Z,1.40
2023-03-19T05:24:43.938Z,0.90
2023-03-19T05:26:47.618Z,1.10
2023-03-19T05:29:14.063Z,2.22
2023-03-19T05:31:30.356Z,1.10
2023-03-19T05:33:33.966Z,0.93
2023-03-19T05:35:39.328Z,1.20
2023-03-19T05:37:50.120Z,1.38
2023-03-19T05:39:53.671Z,1.55
2023-03-19T05:41:56.943Z,1.42
2023-03-19T05:44:05.114Z,1.77
2023-03-19T05:46:39.157Z,1.33
2023-03-19T05:48:42.853Z,1.20
2023-03-19T05:50:46.622Z,1.02
2023-03-19T05:52:55.709Z,1.02
2023-03-19T05:54:59.024Z,1.05
2023-03-19T05:57:28.427Z,1.33
2023-03-19T05:59:52.283Z,1.10
2023-03-19T06:02:12.241Z,1.65
2023-03-19T06:04:16.707Z,1.33
2023-03-19T06:06:20.472Z,1.80
2023-03-19T06:08:27.965Z,1.20
2023-03-19T06:10:53.781Z,1.40
2023-03-19T06:12:57.128Z,1.75
2023-03-19T06:15:14.806Z,1.20
2023-03-19T06:17:22.500Z,1.25
2023-03-19T06:19:26.208Z,1.17
2023-03-19T06:21:31.628Z,1.33
2023-03-19T06:23:38.386Z,1.50
2023-03-19T06:25:43.249Z,1.30
2023-03-19T06:27:47.515Z,1.15
2023-03-19T06:30:02.249Z,1.17
2023-03-19T06:32:09.912Z,1.27
2023-03-19T06:34:17.611Z,1.15
2023-03-19T06:38:25.142Z,1.42
2023-03-19T06:40:28.394Z,1.45
2023-03-19T06:42:31.829Z,1.25
2023-03-19T06:44:35.490Z,1.73
2023-03-19T06:46:38.764Z,1.20
2023-03-19T06:48:42.171Z,1.48
2023-03-19T06:50:47.613Z,1.15
2023-03-19T06:52:51.060Z,0.80
2023-03-19T06:54:54.384Z,1.15
2023-03-19T06:56:57.694Z,1.48
2023-03-19T06:59:01.062Z,1.38
2023-03-19T07:01:04.432Z,1.05
2023-03-19T07:03:07.767Z,1.27
2023-03-19T07:05:11.260Z,1.77
2023-03-19T07:07:16.134Z,1.40
2023-03-19T07:09:19.448Z,1.30
2023-03-19T07:11:22.648Z,1.02
2023-03-19T07:13:25.954Z,1.50
2023-03-19T07:15:29.160Z,1.42
2023-03-19T07:17:32.500Z,1.20
2023-03-19T07:19:35.904Z,1.02
2023-03-19T07:21:39.189Z,1.15
2023-03-19T07:23:44.067Z,0.90
2023-03-19T07:25:47.838Z,1.13
2023-03-19T07:27:51.080Z,0.93
2023-03-19T07:29:55.719Z,1.45
2023-03-19T07:31:59.182Z,1.00
2023-03-19T07:34:02.973Z,1.67
2023-03-19T07:36:07.306Z,0.90
2023-03-19T07:38:10.551Z,0.98
2023-03-19T07:40:15.398Z,0.80
2023-03-19T07:42:18.725Z,0.80
2023-03-19T07:44:21.946Z,1.23
2023-03-19T07:46:25.588Z,1.75
2023-03-19T07:48:28.935Z,2.03
2023-03-19T07:50:32.924Z,1.15
2023-03-19T07:52:36.846Z,1.42
2023-03-19T07:54:40.064Z,1.63
2023-03-19T07:56:45.314Z,1.33
2023-03-19T07:58:48.970Z,0.90
2023-03-19T08:00:52.612Z,1.20
2023-03-19T08:02:55.856Z,1.35
2023-03-19T08:05:02.169Z,1.30
2023-03-19T08:07:06.108Z,1.58
2023-03-19T08:09:09.952Z,1.30
2023-03-19T08:11:13.132Z,1.13
2023-03-19T08:13:17.824Z,1.88
2023-03-19T08:15:21.563Z,1.67
2023-03-19T08:17:24.980Z,1.40
2023-03-19T08:19:28.378Z,2.35
2023-03-19T08:21:33.808Z,2.13
2023-03-19T08:23:37.163Z,1.05
2023-03-19T08:25:40.622Z,1.05
2023-03-19T08:27:44.204Z,1.40
2023-03-19T08:29:48.861Z,1.30
2023-03-19T08:31:52.085Z,1.05
2023-03-19T08:33:56.043Z,1.00
2023-03-19T08:36:07.221Z,0.90
2023-03-19T08:38:11.253Z,1.08
2023-03-19T08:40:15.132Z,1.20
2023-03-19T08:42:18.726Z,1.55
2023-03-19T08:44:22.040Z,1.25
2023-03-19T08:46:27.790Z,1.00
2023-03-19T08:48:31.909Z,1.40
2023-03-19T08:50:36.153Z,1.70
2023-03-19T08:52:40.139Z,1.90
2023-03-19T08:54:43.894Z,0.90
2023-03-19T08:56:47.801Z,1.48
2023-03-19T08:58:51.209Z,1.48
2023-03-19T09:00:54.925Z,1.60
2023-03-19T09:02:59.578Z,1.55
2023-03-19T09:05:03.278Z,1.58
2023-03-19T09:07:07.333Z,1.23
2023-03-19T09:09:10.960Z,1.05
2023-03-19T09:11:17.270Z,1.73
2023-03-19T09:13:21.280Z,0.95
2023-03-19T09:15:24.890Z,2.22
2023-03-19T09:17:28.951Z,1.02
2023-03-19T09:19:34.526Z,1.13
2023-03-19T09:21:38.666Z,2.20
2023-03-19T09:23:42.673Z,1.13
2023-03-19T09:25:46.453Z,1.40
2023-03-19T09:27:50.365Z,1.35
2023-03-19T09:29:54.337Z,1.30
2023-03-19T09:31:57.855Z,1.33
2023-03-19T09:34:01.959Z,1.33
2023-03-19T09:36:08.872Z,1.00
2023-03-19T09:38:12.593Z,1.10
2023-03-19T09:40:24.098Z,0.73
2023-03-19T09:42:50.879Z,1.23
2023-03-19T09:44:55.345Z,0.90
2023-03-19T09:47:03.507Z,1.17
2023-03-19T09:49:18.187Z,1.13
2023-03-19T09:51:32.009Z,1.13
2023-03-19T09:53:42.406Z,0.93
2023-03-19T09:55:49.493Z,1.20
2023-03-19T09:57:55.769Z,1.40
2023-03-19T10:00:00.539Z,1.00
2023-03-19T10:02:25.726Z,1.23
2023-03-19T10:04:45.370Z,1.00
2023-03-19T10:06:55.768Z,1.00
2023-03-19T10:09:13.846Z,1.40
2023-03-19T10:11:33.745Z,1.20
2023-03-19T10:13:51.286Z,1.23
2023-03-19T10:15:56.999Z,1.40
2023-03-19T10:18:04.974Z,1.05
2023-03-19T10:20:17.210Z,1.00
2023-03-19T10:22:28.590Z,1.20
2023-03-19T10:24:37.327Z,1.45
2023-03-19T10:26:41.215Z,1.00
2023-03-19T10:28:47.919Z,0.82
2023-03-19T10:30:58.283Z,1.00
2023-03-19T10:33:14.412Z,1.13
2023-03-19T10:35:21.695Z,1.10
2023-03-19T10:37:29.533Z,1.25
2023-03-19T10:39:35.624Z,1.05
2023-03-19T10:41:48.104Z,1.10
2023-03-19T10:43:56.214Z,1.23
2023-03-19T10:46:00.212Z,1.15
2023-03-19T10:48:05.652Z,1.35
2023-03-19T10:50:16.722Z,1.08
2023-03-19T10:52:25.763Z,0.93
2023-03-19T10:54:32.129Z,1.35
2023-03-19T10:56:36.395Z,1.20
2023-03-19T10:58:40.610Z,1.15
2023-03-19T11:00:48.206Z,1.13
2023-03-19T11:02:54.077Z,1.85
2023-03-19T11:05:10.398Z,1.15
2023-03-19T11:07:16.684Z,1.35
2023-03-19T11:09:27.400Z,1.08
2023-03-19T11:11:38.279Z,1.13
2023-03-19T11:13:42.105Z,0.90
2023-03-19T11:15:49.522Z,0.88
2023-03-19T11:17:59.160Z,0.85
2023-03-19T11:20:20.893Z,1.33
2023-03-19T11:22:27.478Z,1.60
2023-03-19T11:24:34.788Z,1.08
2023-03-19T11:26:39.759Z,0.98
2023-03-19T11:30:57.419Z,0.73
2023-03-19T11:33:27.279Z,0.82
2023-03-19T11:35:34.966Z,1.85
2023-03-19T11:37:56.250Z,1.10
2023-03-19T11:40:10.673Z,1.20
2023-03-19T11:42:57.190Z,1.60
2023-03-19T11:45:16.423Z,0.95
2023-03-19T11:47:32.655Z,0.88
2023-03-19T11:49:58.217Z,1.10
2023-03-19T11:52:10.252Z,0.80
2023-03-19T11:54:24.200Z,1.98
2023-03-19T11:56:38.012Z,1.40
2023-03-19T11:59:19.589Z,1.08
2023-03-19T12:01:39.514Z,0.95
2023-03-19T12:04:04.144Z,1.00
2023-03-19T12:06:19.132Z,0.80
2023-03-19T12:08:36.251Z,1.40
2023-03-19T12:11:04.953Z,0.88
2023-03-19T12:13:21.849Z,1.42
2023-03-19T12:15:31.659Z,1.27
2023-03-19T12:17:53.379Z,1.05
2023-03-19T12:20:12.572Z,0.93
2023-03-19T12:22:26.871Z,1.13
2023-03-19T12:24:45.618Z,1.20
2023-03-19T12:26:58.543Z,1.38
2023-03-19T12:29:08.031Z,1.45
2023-03-19T12:31:31.279Z,1.70
2023-03-19T12:33:44.804Z,1.00
2023-03-19T12:35:51.856Z,0.80
2023-03-19T12:38:01.185Z,1.23
2023-03-19T12:40:15.868Z,0.60
2023-03-19T12:42:24.619Z,1.05
2023-03-19T12:44:34.460Z,1.27
2023-03-19T12:46:45.531Z,0.93
2023-03-19T12:48:54.626Z,1.20
2023-03-19T12:51:05.838Z,1.25
2023-03-19T12:55:22.230Z,1.05
2023-03-19T12:57:36.356Z,1.35
2023-03-19T12:59:48.566Z,0.80
2023-03-19T13:02:01.615Z,1.33
2023-03-19T13:04:10.598Z,1.08
2023-03-19T13:06:21.539Z,1.25
2023-03-19T13:08:33.048Z,1.13
2023-03-19T13:10:37.168Z,0.90
2023-03-19T13:12:41.439Z,1.10
2023-03-19T13:14:54.186Z,0.60
2023-03-19T13:17:04.540Z,1.15
2023-03-19T13:19:18.489Z,0.95
2023-03-19T13:21:25.394Z,1.38
2023-03-19T13:23:34.418Z,0.98
2023-03-19T13:25:41.490Z,0.80
2023-03-19T13:27:54.373Z,1.17
2023-03-19T13:30:09.487Z,1.13
2023-03-19T13:32:27.382Z,1.08
2023-03-19T13:34:35.915Z,1.10
2023-03-19T13:36:40.772Z,0.93
2023-03-19T13:38:48.507Z,0.90
2023-03-19T13:40:53.814Z,1.33
2023-03-19T13:42:58.262Z,1.17
2023-03-19T13:45:04.786Z,1.08
2023-03-19T13:47:44.821Z,1.15
2023-03-19T13:52:50.343Z,1.60
2023-03-19T13:54:57.177Z,1.42
2023-03-19T13:57:36.884Z,1.38
2023-03-19T13:59:44.031Z,1.63
2023-03-19T14:01:47.749Z,1.73
2023-03-19T14:03:58.761Z,1.23
2023-03-19T14:06:03.167Z,1.60
2023-03-19T14:08:18.961Z,1.40
2023-03-19T14:10:28.787Z,2.25
2023-03-19T14:12:35.672Z,1.80
2023-03-19T14:14:43.479Z,1.70
2023-03-19T14:16:48.008Z,2.03
2023-03-19T14:18:52.005Z,1.42
2023-03-19T14:21:00.773Z,1.40
2023-03-19T14:23:23.347Z,1.73
2023-03-19T14:25:49.762Z,2.13
2023-03-19T14:27:56.972Z,2.15
2023-03-19T14:30:09.617Z,3.30
2023-03-19T14:32:19.113Z,3.80
2023-03-19T14:34:28.001Z,2.25
2023-03-19T14:36:33.186Z,2.75
2023-03-19T14:38:42.665Z,3.35
2023-03-19T14:40:51.950Z,2.72
2023-03-19T14:43:04.432Z,3.33
2023-03-19T14:45:28.416Z,9.30
2023-03-19T14:47:54.741Z,3.05
2023-03-19T14:50:47.909Z,3.20
2023-03-19T14:53:00.187Z,1.40
2023-03-19T14:55:11.577Z,2.30
2023-03-19T14:57:19.691Z,2.45
2023-03-19T14:59:23.348Z,2.53
2023-03-19T15:01:28.492Z,4.53
2023-03-19T15:03:34.520Z,2.00
2023-03-19T15:05:38.454Z,1.70
2023-03-19T15:07:46.133Z,1.77
2023-03-19T15:09:55.272Z,1.83
2023-03-19T15:12:34.444Z,2.22
2023-03-19T15:14:55.556Z,1.27
2023-03-19T15:17:07.791Z,2.40
2023-03-19T15:19:12.677Z,2.10
2023-03-19T15:21:17.955Z,1.80
2023-03-19T15:23:27.301Z,2.00
2023-03-19T15:25:32.294Z,2.40
2023-03-19T15:27:38.004Z,1.70
2023-03-19T15:29:41.575Z,2.25
2023-03-19T15:31:52.792Z,1.70
2023-03-19T15:34:19.671Z,2.65
2023-03-19T15:36:27.410Z,2.20
2023-03-19T15:38:37.105Z,2.40
2023-03-19T15:40:42.861Z,3.47
2023-03-19T15:42:49.415Z,2.55
2023-03-19T15:44:57.033Z,2.75
2023-03-19T15:47:03.401Z,3.00
2023-03-19T15:49:12.361Z,2.88
2023-03-19T15:51:20.965Z,3.08
2023-03-19T15:53:28.156Z,3.33
2023-03-19T15:55:32.066Z,2.80
2023-03-19T15:57:37.416Z,3.50
2023-03-19T15:59:43.504Z,8.60
2023-03-19T16:01:46.926Z,9.20
2023-03-19T16:03:56.585Z,6.38
2023-03-19T16:06:04.547Z,5.53
2023-03-19T16:08:18.669Z,12.15
2023-03-19T16:10:35.449Z,18.20
2023-03-19T16:12:42.577Z,16.27
2023-03-19T16:14:47.545Z,9.75
2023-03-19T16:16:52.103Z,7.28
2023-03-19T16:18:57.257Z,9.90
2023-03-19T16:21:07.687Z,6.72
2023-03-19T16:23:17.724Z,7.82
2023-03-19T16:25:22.362Z,7.68
2023-03-19T16:27:35.088Z,5.47
2023-03-19T16:29:41.892Z,6.60
2023-03-19T16:31:52.056Z,7.15
2023-03-19T16:33:57.275Z,7.00
2023-03-19T16:36:01.042Z,8.98
2023-03-19T16:38:13.954Z,15.32
2023-03-19T16:40:43.722Z,10.30
2023-03-19T16:42:49.845Z,6.63
2023-03-19T16:44:54.303Z,6.82
2023-03-19T16:46:59.571Z,7.88
2023-03-19T16:49:03.318Z,6.32
2023-03-19T16:51:11.996Z,5.63
2023-03-19T16:53:24.048Z,6.25
2023-03-19T16:55:30.147Z,6.30
2023-03-19T16:57:34.058Z,15.38
2023-03-19T16:59:37.938Z,8.20
2023-03-19T17:01:41.633Z,17.77
2023-03-19T17:03:48.110Z,7.20
2023-03-19T17:05:51.927Z,15.07
2023-03-19T17:07:56.572Z,8.85
2023-03-19T17:10:00.317Z,13.85
2023-03-19T17:12:06.364Z,12.25
2023-03-19T17:14:16.684Z,5.43
2023-03-19T17:16:21.474Z,5.22
2023-03-19T17:18:26.790Z,6.95
2023-03-19T17:20:47.703Z,8.52
2023-03-19T17:22:57.612Z,5.72
2023-03-19T17:25:01.282Z,6.03
2023-03-19T17:27:05.781Z,5.95
2023-03-19T17:29:12.261Z,5.22
2023-03-19T17:31:27.885Z,5.57
2023-03-19T17:33:32.089Z,5.55
2023-03-19T17:35:37.317Z,8.27
2023-03-19T17:37:41.535Z,7.30
2023-03-19T17:39:46.072Z,5.90
2023-03-19T17:41:49.988Z,6.10
2023-03-19T17:43:53.728Z,6.50
2023-03-19T17:45:57.362Z,7.60
2023-03-19T17:48:01.098Z,7.75
2023-03-19T17:50:06.736Z,8.75
2023-03-19T17:52:16.088Z,9.70
2023-03-19T17:54:21.833Z,40.15
2023-03-19T17:56:27.505Z,18.70
2023-03-19T17:58:31.383Z,15.82
2023-03-19T18:00:35.281Z,13.55
2023-03-19T18:02:41.303Z,13.70
2023-03-19T18:04:45.069Z,9.73
2023-03-19T18:06:52.060Z,12.57
2023-03-19T18:08:57.503Z,24.75
2023-03-19T18:11:02.066Z,10.45
2023-03-19T18:13:07.420Z,16.08
2023-03-19T18:15:13.017Z,12.43
2023-03-19T18:17:18.464Z,12.93
2023-03-19T18:19:30.401Z,15.55
2023-03-19T18:21:35.578Z,10.77
2023-03-19T18:25:46.089Z,12.70
2023-03-19T18:27:51.461Z,10.77
2023-03-19T18:29:56.123Z,11.48
2023-03-19T18:32:04.712Z,27.48
2023-03-19T18:34:12.509Z,13.65
2023-03-19T18:36:21.391Z,14.77
2023-03-19T18:38:29.672Z,13.70
2023-03-19T18:40:35.216Z,12.88
2023-03-19T18:42:41.149Z,11.75
2023-03-19T18:44:46.009Z,24.48
2023-03-19T18:46:50.724Z,18.02
2023-03-19T18:48:58.839Z,21.42
2023-03-19T18:51:03.151Z,15.60
2023-03-19T18:53:08.471Z,12.73
2023-03-19T18:55:13.826Z,11.38
2023-03-19T18:57:18.611Z,10.60
2023-03-19T18:59:30.599Z,8.77
2023-03-19T19:01:35.123Z,7.47
2023-03-19T19:03:39.316Z,8.68
2023-03-19T19:05:43.900Z,5.55
2023-03-19T19:07:48.328Z,11.30
2023-03-19T19:09:53.617Z,3.97
2023-03-19T19:12:01.061Z,3.15
2023-03-19T19:14:06.045Z,3.88
2023-03-19T19:16:19.819Z,2.22
2023-03-19T19:18:26.162Z,3.42
2023-03-19T19:20:31.554Z,2.67
2023-03-19T19:22:35.832Z,2.42
2023-03-19T19:24:40.535Z,3.08
2023-03-19T19:26:46.541Z,1.88
2023-03-19T19:28:52.142Z,6.15
2023-03-19T19:30:57.783Z,1.67
2023-03-19T19:33:04.899Z,6.78
2023-03-19T19:35:17.318Z,1.48
2023-03-19T19:37:23.672Z,1.85
2023-03-19T19:39:28.810Z,1.77
2023-03-19T19:41:34.112Z,1.85
2023-03-19T19:43:42.734Z,1.33
2023-03-19T19:45:48.729Z,2.00
2023-03-19T19:47:54.013Z,1.65
2023-03-19T19:52:03.518Z,0.90
2023-03-19T19:54:07.397Z,1.52
2023-03-19T19:56:16.884Z,1.95
2023-03-19T19:58:23.700Z,1.30
2023-03-19T20:00:30.217Z,1.48
2023-03-19T20:02:34.962Z,2.00
2023-03-19T20:04:39.261Z,22.67
2023-03-19T20:06:44.607Z,10.82
2023-03-19T20:08:49.800Z,4.50
2023-03-19T20:10:54.149Z,1.60
2023-03-19T20:13:00.159Z,4.20
2023-03-19T20:15:04.622Z,1.83
2023-03-19T20:17:11.132Z,2.00
2023-03-19T20:19:20.897Z,4.85
2023-03-19T20:21:25.265Z,2.28
2023-03-19T20:23:31.453Z,3.20
2023-03-19T20:25:35.474Z,1.10
2023-03-19T20:27:39.794Z,2.75
2023-03-19T20:29:43.542Z,2.92
2023-03-19T20:31:48.181Z,3.72
2023-03-19T20:33:52.421Z,3.83
2023-03-19T20:35:56.507Z,3.42
2023-03-19T20:38:02.663Z,2.05
2023-03-19T20:40:08.995Z,3.50
2023-03-19T20:42:16.396Z,1.25
2023-03-19T20:44:26.274Z,1.33
2023-03-19T20:46:32.592Z,1.55
2023-03-19T20:48:36.672Z,2.83
2023-03-19T20:50:40.570Z,2.80
2023-03-19T20:52:44.754Z,1.05
2023-03-19T20:54:48.537Z,1.00
2023-03-19T20:56:53.781Z,1.88
2023-03-19T20:58:57.668Z,1.60
2023-03-19T21:01:01.635Z,0.60
2023-03-19T21:03:05.603Z,2.63
2023-03-19T21:05:13.352Z,2.03
2023-03-19T21:07:29.077Z,0.60
2023-03-19T21:09:32.732Z,1.98
2023-03-19T21:11:40.852Z,1.90
2023-03-19T21:13:46.511Z,1.40
2023-03-19T21:15:51.479Z,1.20
2023-03-19T21:17:55.556Z,2.05
2023-03-19T21:19:59.670Z,2.10
2023-03-19T21:22:07.687Z,1.20
2023-03-19T21:24:16.393Z,1.42
2023-03-19T21:26:22.773Z,1.65
2023-03-19T21:28:30.700Z,1.50
2023-03-19T21:30:39.404Z,1.63
2023-03-19T21:32:43.014Z,1.20
2023-03-19T21:34:49.026Z,1.10
2023-03-19T21:36:53.504Z,1.38
2023-03-19T21:38:57.999Z,1.13
2023-03-19T21:41:05.331Z,1.30
2023-03-19T21:43:09.134Z,1.98
2023-03-19T21:45:20.845Z,1.33
2023-03-19T21:47:26.228Z,2.08
2023-03-19T21:49:30.533Z,1.90
2023-03-19T21:51:34.277Z,2.17
2023-03-19T21:53:37.810Z,1.73
2023-03-19T21:55:41.739Z,1.67
2023-03-19T21:57:46.329Z,1.98
2023-03-19T21:59:50.166Z,1.85
2023-03-19T22:01:54.432Z,1.52
2023-03-19T22:04:00.429Z,1.50
2023-03-19T22:06:04.328Z,2.28
2023-03-19T22:08:09.321Z,2.92
2023-03-19T22:10:13.825Z,1.15
2023-03-19T22:12:27.724Z,1.00
2023-03-19T22:14:32.426Z,2.03
2023-03-19T22:16:36.549Z,1.10
2023-03-19T22:18:41.063Z,1.20
2023-03-19T22:20:47.657Z,1.92
2023-03-19T22:22:51.883Z,1.10
2023-03-19T22:24:59.835Z,1.60
2023-03-19T22:27:04.267Z,2.13
2023-03-19T22:29:13.311Z,1.42
2023-03-19T22:31:18.110Z,1.20
2023-03-19T22:33:24.971Z,1.75
2023-03-19T22:35:31.204Z,1.13
2023-03-19T22:37:37.111Z,1.45
2023-03-19T22:39:41.618Z,1.38
2023-03-19T22:41:48.116Z,1.38
2023-03-19T22:43:52.534Z,1.58
2023-03-19T22:46:00.215Z,3.13
2023-03-19T22:48:04.589Z,3.67
2023-03-19T22:50:18.037Z,1.58
2023-03-19T22:52:22.830Z,1.20
2023-03-19T22:54:28.370Z,2.13
2023-03-19T22:56:33.369Z,1.60
2023-03-19T23:00:41.742Z,1.55
2023-03-19T23:02:46.878Z,1.30
2023-03-19T23:06:57.490Z,1.45
2023-03-19T23:09:01.346Z,1.10
2023-03-19T23:11:08.115Z,1.25
2023-03-19T23:13:14.607Z,1.10
2023-03-19T23:15:18.838Z,1.05
2023-03-19T23:17:24.067Z,2.40
2023-03-19T23:19:31.401Z,1.40
2023-03-19T23:21:35.670Z,1.63
2023-03-19T23:23:40.293Z,1.88
2023-03-19T23:25:45.281Z,1.20
2023-03-19T23:27:51.897Z,1.50
2023-03-19T23:29:57.125Z,1.25
2023-03-19T23:32:01.983Z,1.35
2023-03-19T23:34:06.072Z,1.15
2023-03-19T23:36:11.919Z,1.30
2023-03-19T23:38:17.567Z,4.82
2023-03-19T23:40:21.681Z,1.92
2023-03-19T23:42:29.798Z,1.35
2023-03-19T23:44:35.323Z,1.42
2023-03-19T23:46:39.437Z,1.00
2023-03-19T23:48:43.478Z,1.48
2023-03-19T23:50:48.469Z,1.40
2023-03-19T23:54:55.099Z,1.35
2023-03-19T23:56:59.937Z,1.25
2023-03-19T23:59:03.682Z,1.15
